createdAt,value
2023-03-12T00:01:17.202Z,96790.85
2023-03-12T00:03:43.998Z,96791.70
2023-03-12T00:06:11.283Z,96796.81
2023-03-12T00:08:38.668Z,96790.73
2023-03-12T00:11:07.278Z,96788.70
2023-03-12T00:13:34.441Z,96780.55
2023-03-12T00:16:09.272Z,96774.02
2023-03-12T00:18:35.924Z,96768.57
2023-03-12T00:21:02.660Z,96768.80
2023-03-12T00:23:33.448Z,96784.81
2023-03-12T00:26:08.410Z,96794.86
2023-03-12T00:28:35.895Z,96800.78
2023-03-12T00:31:26.569Z,96799.73
2023-03-12T00:33:54.125Z,96807.46
2023-03-12T00:36:24.256Z,96803.67
2023-03-12T00:38:53.899Z,96800.48
2023-03-12T00:41:21.089Z,96801.54
2023-03-12T00:43:48.407Z,96805.42
2023-03-12T00:46:15.214Z,96800.48
2023-03-12T00:48:42.019Z,96800.39
2023-03-12T00:51:08.772Z,96802.14
2023-03-12T00:53:35.459Z,96801.89
2023-03-12T00:56:02.804Z,96811.45
2023-03-12T00:58:30.780Z,96815.21
2023-03-12T01:00:57.541Z,96809.34
2023-03-12T01:03:24.610Z,96812.80
2023-03-12T01:05:56.088Z,96811.60
2023-03-12T01:08:24.371Z,96810.15
2023-03-12T01:10:51.210Z,96804.00
2023-03-12T01:13:18.370Z,96800.29
2023-03-12T01:15:44.984Z,96803.80
2023-03-12T01:18:11.662Z,96808.77
2023-03-12T01:20:39.808Z,96814.50
2023-03-12T01:23:06.614Z,96816.23
2023-03-12T01:25:34.263Z,96816.27
2023-03-12T01:28:01.561Z,96818.10
2023-03-12T01:30:28.764Z,96822.52
2023-03-12T01:32:56.534Z,96828.52
2023-03-12T01:35:23.331Z,96832.09
2023-03-12T01:37:50.127Z,96837.81
2023-03-12T01:40:18.343Z,96849.55
2023-03-12T01:42:55.712Z,96857.77
2023-03-12T01:45:57.131Z,96862.81
2023-03-12T01:48:31.922Z,96863.64
2023-03-12T01:50:59.108Z,96874.42
2023-03-12T01:53:25.849Z,96883.86
2023-03-12T01:55:52.730Z,96890.75
2023-03-12T01:58:19.614Z,96900.67
2023-03-12T02:00:46.370Z,96914.43
2023-03-12T02:03:13.880Z,96916.85
2023-03-12T02:05:48.161Z,96920.41
2023-03-12T02:08:15.329Z,96924.98
2023-03-12T02:10:42.182Z,96929.55
2023-03-12T02:13:10.830Z,96938.92
2023-03-12T02:15:43.223Z,96952.08
2023-03-12T02:18:16.180Z,96952.48
2023-03-12T02:20:58.630Z,96958.67
2023-03-12T02:23:52.511Z,96960.35
2023-03-12T02:26:20.065Z,96962.20
2023-03-12T02:28:47.135Z,96962.34
2023-03-12T02:31:17.123Z,96959.52
2023-03-12T02:33:43.843Z,96962.58
2023-03-12T02:36:10.661Z,96970.11
2023-03-12T02:38:41.802Z,96977.52
2023-03-12T02:41:26.640Z,96981.94
2023-03-12T02:44:01.809Z,96989.34
2023-03-12T02:46:32.257Z,96986.57
2023-03-12T02:48:59.662Z,96995.13
2023-03-12T02:51:26.636Z,96997.85
2023-03-12T02:53:54.448Z,96996.13
2023-03-12T02:56:23.026Z,97004.48
2023-03-12T02:58:50.792Z,97016.18
2023-03-12T03:01:21.911Z,97019.11
2023-03-12T03:03:49.565Z,97023.23
2023-03-12T03:06:16.329Z,97026.23
2023-03-12T03:08:43.178Z,97023.89
2023-03-12T03:11:10.082Z,97028.04
2023-03-12T03:13:36.875Z,97036.92
2023-03-12T03:16:04.280Z,97041.66
2023-03-12T03:18:34.232Z,97049.45
2023-03-12T03:21:03.179Z,97049.32
2023-03-12T03:23:34.423Z,97055.30
2023-03-12T03:26:01.199Z,97062.11
2023-03-12T03:28:28.725Z,97070.89
2023-03-12T03:31:01.482Z,97072.51
2023-03-12T03:33:32.833Z,97078.30
2023-03-12T03:36:00.827Z,97075.16
2023-03-12T03:38:29.031Z,97070.15
2023-03-12T03:40:56.088Z,97072.09
2023-03-12T03:43:24.686Z,97078.27
2023-03-12T03:46:02.363Z,97074.04
2023-03-12T03:48:29.510Z,97085.35
2023-03-12T03:51:01.329Z,97089.97
2023-03-12T03:53:32.660Z,97108.73
2023-03-12T03:56:10.483Z,97107.06
2023-03-12T03:58:38.409Z,97111.61
2023-03-12T04:01:05.780Z,97109.27
2023-03-12T04:03:33.651Z,97114.61
2023-03-12T04:06:02.609Z,97122.34
2023-03-12T04:08:32.256Z,97126.57
2023-03-12T04:10:59.464Z,97131.00
2023-03-12T04:13:26.353Z,97135.81
2023-03-12T04:16:01.683Z,97144.52
2023-03-12T04:18:28.980Z,97154.55
2023-03-12T04:20:55.928Z,97169.45
2023-03-12T04:23:23.833Z,97173.94
2023-03-12T04:25:50.576Z,97172.86
2023-03-12T04:28:17.387Z,97186.02
2023-03-12T04:30:44.150Z,97187.98
2023-03-12T04:33:11.455Z,97190.60
2023-03-12T04:35:49.541Z,97189.21
2023-03-12T04:38:18.526Z,97194.23
2023-03-12T04:40:45.328Z,97205.84
2023-03-12T04:43:13.207Z,97208.48
2023-03-12T04:45:39.884Z,97211.96
2023-03-12T04:48:07.784Z,97206.30
2023-03-12T04:50:36.184Z,97217.64
2023-03-12T04:53:05.208Z,97215.42
2023-03-12T04:55:32.226Z,97221.05
2023-03-12T04:57:59.146Z,97227.38
2023-03-12T05:00:26.628Z,97234.75
2023-03-12T05:02:54.230Z,97236.46
2023-03-12T05:05:21.417Z,97239.88
2023-03-12T05:08:07.961Z,97258.15
2023-03-12T05:10:38.336Z,97277.76
2023-03-12T05:13:13.368Z,97276.38
2023-03-12T05:15:40.575Z,97294.54
2023-03-12T05:18:07.294Z,97298.23
2023-03-12T05:20:34.096Z,97305.04
2023-03-12T05:23:01.406Z,97318.65
2023-03-12T05:25:34.162Z,97333.05
2023-03-12T05:28:00.875Z,97333.75
2023-03-12T05:30:27.836Z,97341.39
2023-03-12T05:32:55.190Z,97348.99
2023-03-12T05:35:22.799Z,97352.59
2023-03-12T05:37:53.876Z,97349.33
2023-03-12T05:40:20.727Z,97352.91
2023-03-12T05:42:47.461Z,97357.68
2023-03-12T05:45:14.442Z,97367.55
2023-03-12T05:47:43.722Z,97376.18
2023-03-12T05:50:11.902Z,97384.74
2023-03-12T05:52:39.379Z,97388.52
2023-03-12T05:55:07.801Z,97392.50
2023-03-12T05:57:34.632Z,97399.77
2023-03-12T06:00:01.540Z,97414.00
2023-03-12T06:02:41.410Z,97423.58
2023-03-12T06:05:10.841Z,97424.58
2023-03-12T06:07:42.862Z,97431.15
2023-03-12T06:10:10.265Z,97432.94
2023-03-12T06:12:36.992Z,97440.14
2023-03-12T06:15:06.276Z,97448.70
2023-03-12T06:17:33.482Z,97465.35
2023-03-12T06:20:00.139Z,97477.64
2023-03-12T06:22:28.432Z,97480.15
2023-03-12T06:24:55.217Z,97487.00
2023-03-12T06:27:22.373Z,97502.46
2023-03-12T06:29:50.957Z,97505.58
2023-03-12T06:32:17.843Z,97512.28
2023-03-12T06:34:50.726Z,97521.55
2023-03-12T06:37:17.412Z,97528.55
2023-03-12T06:39:44.071Z,97534.91
2023-03-12T06:42:12.547Z,97544.50
2023-03-12T06:44:39.222Z,97549.94
2023-03-12T06:47:06.004Z,97554.67
2023-03-12T06:49:33.762Z,97557.81
2023-03-12T06:52:00.464Z,97567.17
2023-03-12T06:54:28.241Z,97564.30
2023-03-12T06:56:54.920Z,97574.67
2023-03-12T06:59:23.524Z,97582.79
2023-03-12T07:01:51.187Z,97592.36
2023-03-12T07:04:18.324Z,97601.06
2023-03-12T07:06:49.897Z,97610.69
2023-03-12T07:09:27.677Z,97621.63
2023-03-12T07:11:54.408Z,97622.80
2023-03-12T07:14:21.373Z,97626.84
2023-03-12T07:16:52.712Z,97645.95
2023-03-12T07:19:19.881Z,97646.85
2023-03-12T07:21:46.553Z,97662.58
2023-03-12T07:24:14.355Z,97671.85
2023-03-12T07:26:43.197Z,97673.21
2023-03-12T07:29:10.135Z,97671.88
2023-03-12T07:31:37.210Z,97682.06
2023-03-12T07:34:05.909Z,97687.95
2023-03-12T07:36:35.996Z,97693.50
2023-03-12T07:39:04.038Z,97701.77
2023-03-12T07:41:30.974Z,97709.95
2023-03-12T07:43:57.840Z,97711.48
2023-03-12T07:46:24.912Z,97716.63
2023-03-12T07:48:55.248Z,97732.02
2023-03-12T07:51:22.390Z,97733.70
2023-03-12T07:53:49.143Z,97736.17
2023-03-12T07:56:16.298Z,97747.09
2023-03-12T07:58:44.375Z,97758.04
2023-03-12T08:01:13.195Z,97754.24
2023-03-12T08:03:41.573Z,97765.71
2023-03-12T08:06:08.640Z,97760.10
2023-03-12T08:08:41.217Z,97770.98
2023-03-12T08:11:08.426Z,97784.13
2023-03-12T08:13:35.877Z,97782.81
2023-03-12T08:16:02.635Z,97787.93
2023-03-12T08:18:29.968Z,97797.66
2023-03-12T08:21:02.315Z,97801.77
2023-03-12T08:23:30.101Z,97808.10
2023-03-12T08:25:58.525Z,97815.61
2023-03-12T08:28:26.889Z,97816.00
2023-03-12T08:30:54.909Z,97814.55
2023-03-12T08:33:23.172Z,97817.30
2023-03-12T08:35:50.199Z,97819.99
2023-03-12T08:38:16.883Z,97833.41
2023-03-12T08:40:44.181Z,97843.41
2023-03-12T08:43:11.544Z,97850.35
2023-03-12T08:45:38.945Z,97856.96
2023-03-12T08:48:06.044Z,97855.05
2023-03-12T08:50:39.107Z,97872.48
2023-03-12T08:53:06.786Z,97876.98
2023-03-12T08:55:33.462Z,97879.11
2023-03-12T08:58:00.914Z,97880.61
2023-03-12T09:00:28.760Z,97885.34
2023-03-12T09:02:57.739Z,97879.91
2023-03-12T09:05:25.587Z,97889.56
2023-03-12T09:07:57.064Z,97899.66
2023-03-12T09:10:24.913Z,97897.94
2023-03-12T09:12:51.837Z,97899.52
2023-03-12T09:15:26.303Z,97908.51
2023-03-12T09:17:53.512Z,97914.05
2023-03-12T09:20:20.751Z,97924.12
2023-03-12T09:22:47.798Z,97930.59
2023-03-12T09:25:15.398Z,97929.17
2023-03-12T09:27:43.944Z,97939.05
2023-03-12T09:30:16.725Z,97946.10
2023-03-12T09:32:45.137Z,97954.51
2023-03-12T09:35:13.397Z,97961.61
2023-03-12T09:37:40.692Z,97967.94
2023-03-12T09:40:08.406Z,97977.44
2023-03-12T09:42:42.458Z,97982.59
2023-03-12T09:45:24.457Z,97991.55
2023-03-12T09:47:53.864Z,97997.92
2023-03-12T09:50:34.082Z,98005.95
2023-03-12T09:53:11.682Z,98009.96
2023-03-12T09:55:40.620Z,98011.60
2023-03-12T09:58:14.181Z,98018.79
2023-03-12T10:00:41.326Z,98017.52
2023-03-12T10:03:14.275Z,98026.62
2023-03-12T10:06:03.651Z,98032.34
2023-03-12T10:08:33.638Z,98037.90
2023-03-12T10:11:36.038Z,98041.59
2023-03-12T10:14:57.294Z,98048.22
2023-03-12T10:17:42.888Z,98057.45
2023-03-12T10:20:47.495Z,98068.16
2023-03-12T10:23:49.666Z,98078.06
2023-03-12T10:26:46.632Z,98082.80
2023-03-12T10:29:23.990Z,98087.04
2023-03-12T10:31:53.813Z,98085.73
2023-03-12T10:34:42.747Z,98092.67
2023-03-12T10:37:21.705Z,98096.92
2023-03-12T10:39:48.860Z,98092.34
2023-03-12T10:42:18.657Z,98082.16
2023-03-12T10:44:48.676Z,98080.34
2023-03-12T10:47:22.597Z,98076.08
2023-03-12T10:49:52.852Z,98079.41
2023-03-12T10:52:21.653Z,98082.77
2023-03-12T10:54:50.888Z,98088.66
2023-03-12T10:57:18.270Z,98095.21
2023-03-12T10:59:47.064Z,98096.94
2023-03-12T11:02:34.286Z,98102.32
2023-03-12T11:05:06.483Z,98108.08
2023-03-12T11:07:34.905Z,98103.05
2023-03-12T11:10:41.932Z,98111.29
2023-03-12T11:13:28.664Z,98110.36
2023-03-12T11:16:02.329Z,98117.63
2023-03-12T11:18:34.555Z,98117.81
2023-03-12T11:21:08.220Z,98120.08
2023-03-12T11:23:38.245Z,98128.81
2023-03-12T11:26:20.141Z,98127.15
2023-03-12T11:28:49.177Z,98125.98
2023-03-12T11:31:22.864Z,98129.89
2023-03-12T11:33:51.555Z,98135.34
2023-03-12T11:36:25.303Z,98138.21
2023-03-12T11:39:08.701Z,98134.84
2023-03-12T11:41:53.665Z,98141.10
2023-03-12T11:44:41.015Z,98145.08
2023-03-12T11:47:18.135Z,98150.77
2023-03-12T11:50:03.357Z,98152.40
2023-03-12T11:52:55.970Z,98149.84
2023-03-12T11:55:43.528Z,98155.98
2023-03-12T11:58:13.189Z,98158.97
2023-03-12T12:01:13.555Z,98163.16
2023-03-12T12:03:52.372Z,98166.30
2023-03-12T12:06:58.017Z,98170.84
2023-03-12T12:09:43.155Z,98176.02
2023-03-12T12:12:40.802Z,98184.95
2023-03-12T12:15:29.641Z,98192.39
2023-03-12T12:18:05.182Z,98201.19
2023-03-12T12:20:44.722Z,98207.11
2023-03-12T12:23:33.420Z,98208.80
2023-03-12T12:26:00.298Z,98212.88
2023-03-12T12:28:30.178Z,98210.64
2023-03-12T12:31:19.432Z,98216.63
2023-03-12T12:34:23.738Z,98228.71
2023-03-12T12:36:53.784Z,98233.11
2023-03-12T12:39:33.540Z,98240.69
2023-03-12T12:42:05.628Z,98250.75
2023-03-12T12:44:39.428Z,98247.25
2023-03-12T12:47:12.823Z,98244.34
2023-03-12T12:49:52.437Z,98256.79
2023-03-12T12:52:21.050Z,98258.52
2023-03-12T12:54:53.819Z,98263.81
2023-03-12T12:57:53.012Z,98267.44
2023-03-12T13:00:46.056Z,98273.27
2023-03-12T13:03:16.909Z,98273.38
2023-03-12T13:05:46.328Z,98275.77
2023-03-12T13:08:32.720Z,98279.09
2023-03-12T13:11:16.321Z,98279.27
2023-03-12T13:14:15.721Z,98283.88
2023-03-12T13:16:46.408Z,98291.14
2023-03-12T13:19:25.506Z,98292.71
2023-03-12T13:22:21.560Z,98295.59
2023-03-12T13:25:07.294Z,98290.69
2023-03-12T13:27:39.389Z,98298.29
2023-03-12T13:30:34.388Z,98298.14
2023-03-12T13:33:05.541Z,98298.91
2023-03-12T13:35:36.778Z,98305.60
2023-03-12T13:38:12.021Z,98308.80
2023-03-12T13:40:40.055Z,98305.73
2023-03-12T13:43:16.846Z,98316.16
2023-03-12T13:45:47.087Z,98313.80
2023-03-12T13:48:15.202Z,98314.63
2023-03-12T13:50:58.298Z,98306.33
2023-03-12T13:53:35.305Z,98304.36
2023-03-12T13:56:04.170Z,98306.48
2023-03-12T13:58:51.932Z,98303.60
2023-03-12T14:01:19.297Z,98302.40
2023-03-12T14:03:49.222Z,98302.69
2023-03-12T14:06:21.130Z,98303.02
2023-03-12T14:08:56.586Z,98304.03
2023-03-12T14:11:30.595Z,98302.33
2023-03-12T14:14:12.583Z,98310.23
2023-03-12T14:16:46.044Z,98312.05
2023-03-12T14:19:13.236Z,98315.40
2023-03-12T14:21:43.963Z,98317.41
2023-03-12T14:24:22.578Z,98315.54
2023-03-12T14:26:52.555Z,98319.27
2023-03-12T14:29:22.677Z,98318.70
2023-03-12T14:31:49.689Z,98324.77
2023-03-12T14:34:21.273Z,98335.85
2023-03-12T14:37:18.539Z,98334.50
2023-03-12T14:40:03.790Z,98341.52
2023-03-12T14:42:32.777Z,98358.63
2023-03-12T14:45:11.262Z,98368.74
2023-03-12T14:47:45.584Z,98370.39
2023-03-12T14:50:19.718Z,98368.64
2023-03-12T14:52:48.560Z,98368.97
2023-03-12T14:55:20.410Z,98370.02
2023-03-12T14:58:15.101Z,98374.64
2023-03-12T15:00:43.451Z,98375.83
2023-03-12T15:03:16.092Z,98383.53
2023-03-12T15:05:46.304Z,98389.38
2023-03-12T15:08:12.961Z,98387.34
2023-03-12T15:10:50.863Z,98379.09
2023-03-12T15:13:18.834Z,98382.80
2023-03-12T15:15:47.098Z,98390.72
2023-03-12T15:18:15.890Z,98390.77
2023-03-12T15:20:46.179Z,98393.08
2023-03-12T15:23:16.611Z,98394.25
2023-03-12T15:25:44.410Z,98394.77
2023-03-12T15:28:11.326Z,98400.52
2023-03-12T15:30:43.073Z,98405.30
2023-03-12T15:33:17.264Z,98410.62
2023-03-12T15:36:04.937Z,98415.41
2023-03-12T15:38:34.240Z,98419.92
2023-03-12T15:41:26.031Z,98431.70
2023-03-12T15:43:56.359Z,98430.80
2023-03-12T15:46:23.899Z,98434.16
2023-03-12T15:48:55.999Z,98429.34
2023-03-12T15:51:30.012Z,98434.20
2023-03-12T15:54:23.444Z,98436.80
2023-03-12T15:56:50.293Z,98440.71
2023-03-12T15:59:25.291Z,98449.33
2023-03-12T16:01:55.586Z,98457.04
2023-03-12T16:04:22.712Z,98458.58
2023-03-12T16:06:52.877Z,98462.86
2023-03-12T16:09:26.412Z,98461.82
2023-03-12T16:11:54.232Z,98468.69
2023-03-12T16:14:28.874Z,98478.58
2023-03-12T16:16:58.030Z,98487.16
2023-03-12T16:19:27.859Z,98485.23
2023-03-12T16:21:57.785Z,98488.17
2023-03-12T16:24:24.900Z,98493.38
2023-03-12T16:26:52.918Z,98500.61
2023-03-12T16:29:20.753Z,98506.60
2023-03-12T16:31:52.712Z,98512.71
2023-03-12T16:34:19.445Z,98512.89
2023-03-12T16:36:46.201Z,98522.36
2023-03-12T16:39:13.253Z,98550.90
2023-03-12T16:41:40.956Z,98592.95
2023-03-12T16:44:07.825Z,98580.45
2023-03-12T16:46:35.455Z,98562.63
2023-03-12T16:49:03.183Z,98564.31
2023-03-12T16:51:29.896Z,98568.75
2023-03-12T16:54:09.493Z,98578.63
2023-03-12T16:56:41.134Z,98587.65
2023-03-12T16:59:16.011Z,98590.89
2023-03-12T17:01:42.932Z,98593.20
2023-03-12T17:04:11.576Z,98604.92
2023-03-12T17:06:41.021Z,98612.05
2023-03-12T17:09:07.934Z,98620.84
2023-03-12T17:11:41.014Z,98625.95
2023-03-12T17:14:19.112Z,98633.85
2023-03-12T17:16:51.378Z,98640.19
2023-03-12T17:19:18.781Z,98647.52
2023-03-12T17:21:46.572Z,98643.88
2023-03-12T17:24:13.843Z,98648.36
2023-03-12T17:26:42.852Z,98652.40
2023-03-12T17:29:09.696Z,98656.08
2023-03-12T17:31:38.021Z,98663.31
2023-03-12T17:34:05.285Z,98670.02
2023-03-12T17:36:36.425Z,98675.59
2023-03-12T17:39:03.594Z,98677.84
2023-03-12T17:41:32.020Z,98683.14
2023-03-12T17:44:03.103Z,98690.25
2023-03-12T17:46:30.852Z,98695.84
2023-03-12T17:49:01.636Z,98700.57
2023-03-12T17:51:29.081Z,98707.16
2023-03-12T17:53:55.913Z,98710.64
2023-03-12T17:56:22.625Z,98712.36
2023-03-12T17:58:49.497Z,98716.15
2023-03-12T18:01:16.339Z,98716.87
2023-03-12T18:03:44.849Z,98720.77
2023-03-12T18:06:13.069Z,98726.17
2023-03-12T18:08:39.819Z,98722.75
2023-03-12T18:11:06.657Z,98731.64
2023-03-12T18:13:33.617Z,98732.52
2023-03-12T18:16:00.413Z,98734.95
2023-03-12T18:18:27.620Z,98740.73
2023-03-12T18:20:54.977Z,98743.02
2023-03-12T18:23:23.629Z,98744.41
2023-03-12T18:25:51.163Z,98749.77
2023-03-12T18:28:18.111Z,98753.11
2023-03-12T18:30:46.192Z,98757.67
2023-03-12T18:33:13.778Z,98756.05
2023-03-12T18:35:45.063Z,98763.90
2023-03-12T18:38:17.651Z,98768.03
2023-03-12T18:40:44.372Z,98769.20
2023-03-12T18:43:12.930Z,98770.89
2023-03-12T18:45:43.506Z,98779.65
2023-03-12T18:48:10.388Z,98782.14
2023-03-12T18:50:39.276Z,98785.09
2023-03-12T18:53:06.188Z,98792.70
2023-03-12T18:55:32.856Z,98800.86
2023-03-12T18:57:59.804Z,98807.80
2023-03-12T19:00:26.909Z,98809.38
2023-03-12T19:02:54.709Z,98814.23
2023-03-12T19:05:21.871Z,98821.42
2023-03-12T19:07:48.808Z,98826.54
2023-03-12T19:10:15.850Z,98828.87
2023-03-12T19:12:52.012Z,98831.66
2023-03-12T19:15:21.001Z,98830.27
2023-03-12T19:17:49.667Z,98834.02
2023-03-12T19:20:17.146Z,98840.41
2023-03-12T19:22:49.414Z,98845.75
2023-03-12T19:25:16.461Z,98851.27
2023-03-12T19:27:43.242Z,98848.58
2023-03-12T19:30:11.390Z,98857.39
2023-03-12T19:32:43.745Z,98866.46
2023-03-12T19:35:12.661Z,98874.48
2023-03-12T19:37:39.867Z,98882.36
2023-03-12T19:40:07.101Z,98885.70
2023-03-12T19:42:34.653Z,98888.42
2023-03-12T19:45:01.399Z,98889.64
2023-03-12T19:47:32.659Z,98889.28
2023-03-12T19:50:00.130Z,98896.63
2023-03-12T19:52:29.783Z,98900.45
2023-03-12T19:55:04.281Z,98901.98
2023-03-12T19:57:32.757Z,98911.18
2023-03-12T20:00:00.126Z,98916.09
2023-03-12T20:02:27.222Z,98922.72
2023-03-12T20:04:58.192Z,98930.05
2023-03-12T20:07:25.214Z,98940.67
2023-03-12T20:09:51.889Z,98956.16
2023-03-12T20:12:18.821Z,98964.23
2023-03-12T20:14:47.027Z,98967.45
2023-03-12T20:17:18.633Z,98981.68
2023-03-12T20:19:45.456Z,98993.23
2023-03-12T20:22:12.123Z,98989.36
2023-03-12T20:24:39.562Z,98996.02
2023-03-12T20:27:06.702Z,98984.07
2023-03-12T20:29:33.473Z,98981.20
2023-03-12T20:32:00.517Z,98986.61
2023-03-12T20:34:27.409Z,98984.94
2023-03-12T20:36:57.261Z,98988.02
2023-03-12T20:39:24.163Z,98993.13
2023-03-12T20:41:51.153Z,98999.66
2023-03-12T20:44:18.076Z,98994.64
2023-03-12T20:46:46.038Z,98995.55
2023-03-12T20:49:13.306Z,99004.16
2023-03-12T20:51:42.146Z,98999.35
2023-03-12T20:54:14.140Z,99008.98
2023-03-12T20:56:43.152Z,99015.09
2023-03-12T20:59:10.853Z,99016.48
2023-03-12T21:01:38.587Z,99023.48
2023-03-12T21:04:05.301Z,99023.36
2023-03-12T21:06:36.135Z,99028.40
2023-03-12T21:09:03.446Z,99024.53
2023-03-12T21:11:30.693Z,99024.04
2023-03-12T21:13:59.601Z,99026.45
2023-03-12T21:16:26.359Z,99028.11
2023-03-12T21:18:56.840Z,99031.89
2023-03-12T21:21:23.446Z,99029.20
2023-03-12T21:23:50.897Z,99029.54
2023-03-12T21:26:19.330Z,99043.96
2023-03-12T21:28:46.828Z,99044.21
2023-03-12T21:31:15.729Z,99045.07
2023-03-12T21:33:42.495Z,99042.39
2023-03-12T21:36:10.792Z,99048.46
2023-03-12T21:38:42.748Z,99056.43
2023-03-12T21:41:14.563Z,99057.14
2023-03-12T21:43:41.709Z,99055.52
2023-03-12T21:46:10.051Z,99062.31
2023-03-12T21:48:37.519Z,99072.23
2023-03-12T21:51:06.791Z,99076.70
2023-03-12T21:53:34.867Z,99080.11
2023-03-12T21:56:01.657Z,99083.61
2023-03-12T21:58:31.414Z,99084.20
2023-03-12T22:01:06.789Z,99093.58
2023-03-12T22:03:33.919Z,99099.06
2023-03-12T22:06:01.609Z,99105.30
2023-03-12T22:08:32.030Z,99109.28
2023-03-12T22:10:59.017Z,99109.80
2023-03-12T22:13:25.712Z,99117.42
2023-03-12T22:15:58.461Z,99120.20
2023-03-12T22:18:25.425Z,99129.38
2023-03-12T22:20:53.141Z,99138.77
2023-03-12T22:23:20.267Z,99151.08
2023-03-12T22:25:47.031Z,99155.36
2023-03-12T22:28:14.385Z,99163.72
2023-03-12T22:30:42.539Z,99170.32
2023-03-12T22:33:09.606Z,99173.14
2023-03-12T22:35:45.040Z,99173.49
2023-03-12T22:38:12.556Z,99178.23
2023-03-12T22:40:40.612Z,99187.24
2023-03-12T22:43:07.534Z,99194.15
2023-03-12T22:45:34.361Z,99200.80
2023-03-12T22:48:01.813Z,99205.66
2023-03-12T22:50:28.612Z,99214.16
2023-03-12T22:52:59.660Z,99215.55
2023-03-12T22:55:26.366Z,99219.39
2023-03-12T22:57:52.975Z,99219.83
2023-03-12T23:00:22.308Z,99220.05
2023-03-12T23:02:49.470Z,99224.38
2023-03-12T23:05:17.510Z,99224.48
2023-03-12T23:07:46.322Z,99229.36
2023-03-12T23:10:16.320Z,99234.89
2023-03-12T23:12:43.853Z,99237.48
2023-03-12T23:15:12.009Z,99243.10
2023-03-12T23:17:42.863Z,99247.15
2023-03-12T23:20:10.348Z,99252.13
2023-03-12T23:22:37.269Z,99263.59
2023-03-12T23:25:05.319Z,99263.07
2023-03-12T23:27:33.296Z,99270.38
2023-03-12T23:29:59.957Z,99269.30
2023-03-12T23:32:27.612Z,99271.55
2023-03-12T23:34:54.446Z,99276.50
2023-03-12T23:37:22.108Z,99279.26
2023-03-12T23:39:54.799Z,99287.23
2023-03-12T23:42:27.504Z,99286.42
2023-03-12T23:44:54.422Z,99281.77
2023-03-12T23:47:21.090Z,99283.02
2023-03-12T23:49:47.786Z,99286.86
2023-03-12T23:52:14.611Z,99292.80
2023-03-12T23:54:41.289Z,99295.42
2023-03-12T23:57:08.274Z,99301.86
2023-03-12T23:59:34.897Z,99305.73
